createdAt,value
2022-11-18T00:00:34.045Z,28.13
2022-11-18T00:02:07.233Z,28.17
2022-11-18T00:03:42.638Z,29.07
2022-11-18T00:05:15.842Z,27.83
2022-11-18T00:06:48.905Z,31.60
2022-11-18T00:08:22.221Z,28.37
2022-11-18T00:09:55.315Z,28.40
2022-11-18T00:11:46.221Z,27.13
2022-11-18T00:13:37.463Z,28.67
2022-11-18T00:15:11.733Z,30.07
2022-11-18T00:16:43.842Z,28.07
2022-11-18T00:18:16.987Z,28.90
2022-11-18T00:19:51.380Z,29.53
2022-11-18T00:21:24.444Z,27.63
2022-11-18T00:22:58.032Z,29.60
2022-11-18T00:24:32.773Z,28.63
2022-11-18T00:26:07.193Z,28.73
2022-11-18T00:27:40.245Z,31.00
2022-11-18T00:29:14.198Z,29.00
2022-11-18T00:30:47.385Z,34.50
2022-11-18T00:32:19.473Z,31.57
2022-11-18T00:33:52.852Z,31.17
2022-11-18T00:35:27.266Z,32.93
2022-11-18T00:37:00.369Z,33.00
2022-11-18T00:38:33.988Z,35.20
2022-11-18T00:40:08.358Z,34.23
2022-11-18T00:41:58.942Z,31.77
2022-11-18T00:43:32.197Z,30.37
2022-11-18T00:45:04.677Z,34.23
2022-11-18T00:46:37.790Z,30.73
2022-11-18T00:48:10.846Z,31.80
2022-11-18T00:49:43.916Z,31.93
2022-11-18T00:51:19.540Z,34.97
2022-11-18T00:52:52.611Z,34.27
2022-11-18T00:54:25.682Z,33.20
2022-11-18T00:55:58.786Z,32.43
2022-11-18T00:57:31.946Z,32.70
2022-11-18T00:59:04.253Z,33.87
2022-11-18T01:00:37.342Z,32.47
2022-11-18T01:02:10.453Z,32.73
2022-11-18T01:03:42.568Z,36.20
2022-11-18T01:05:15.977Z,34.67
2022-11-18T01:06:50.383Z,36.63
2022-11-18T01:08:23.817Z,32.43
2022-11-18T01:09:57.368Z,34.00
2022-11-18T01:11:47.710Z,33.10
2022-11-18T01:13:21.493Z,36.87
2022-11-18T01:14:54.610Z,33.80
2022-11-18T01:16:29.506Z,35.60
2022-11-18T01:18:01.836Z,36.90
2022-11-18T01:19:34.932Z,35.10
2022-11-18T01:21:08.067Z,32.60
2022-11-18T01:22:42.611Z,35.97
2022-11-18T01:24:16.210Z,33.77
2022-11-18T01:25:50.624Z,34.57
2022-11-18T01:27:23.716Z,34.57
2022-11-18T01:28:56.664Z,34.77
2022-11-18T01:30:29.744Z,35.87
2022-11-18T01:33:54.873Z,35.10
2022-11-18T01:35:27.931Z,37.27
2022-11-18T01:37:00.106Z,34.57
2022-11-18T01:38:34.504Z,34.40
2022-11-18T01:40:09.911Z,36.17
2022-11-18T01:41:42.948Z,35.57
2022-11-18T01:43:18.271Z,36.20
2022-11-18T01:45:10.525Z,33.90
2022-11-18T01:46:43.627Z,36.63
2022-11-18T01:48:20.967Z,39.53
2022-11-18T01:49:53.539Z,37.00
2022-11-18T01:51:33.724Z,37.67
2022-11-18T01:53:09.864Z,35.93
2022-11-18T01:54:48.487Z,34.10
2022-11-18T01:56:24.428Z,34.70
2022-11-18T01:58:02.853Z,36.10
2022-11-18T01:59:39.643Z,38.47
2022-11-18T02:01:13.119Z,35.67
2022-11-18T02:02:47.107Z,36.30
2022-11-18T02:04:20.248Z,38.50
2022-11-18T02:05:54.914Z,37.03
2022-11-18T02:07:27.467Z,35.73
2022-11-18T02:09:00.940Z,33.57
2022-11-18T02:10:35.538Z,37.47
2022-11-18T02:12:08.711Z,36.07
2022-11-18T02:13:41.860Z,33.87
2022-11-18T02:15:15.225Z,35.33
2022-11-18T02:17:05.287Z,36.47
2022-11-18T02:18:45.794Z,34.87
2022-11-18T02:20:40.031Z,32.67
2022-11-18T02:22:27.511Z,33.70
2022-11-18T02:24:28.424Z,35.53
2022-11-18T02:26:20.637Z,35.20
2022-11-18T02:28:20.931Z,35.63
2022-11-18T02:29:58.226Z,34.57
2022-11-18T02:31:36.398Z,34.97
2022-11-18T02:33:13.184Z,36.73
2022-11-18T02:34:52.875Z,32.53
2022-11-18T02:36:32.471Z,32.77
2022-11-18T02:38:10.569Z,34.73
2022-11-18T02:39:48.930Z,36.40
2022-11-18T02:41:26.466Z,34.37
2022-11-18T02:43:03.379Z,34.30
2022-11-18T02:44:39.333Z,35.83
2022-11-18T02:46:17.561Z,38.60
2022-11-18T02:47:52.667Z,33.17
2022-11-18T02:49:31.664Z,35.67
2022-11-18T02:51:07.143Z,35.17
2022-11-18T02:52:41.811Z,36.33
2022-11-18T02:54:16.474Z,34.70
2022-11-18T02:55:49.452Z,37.63
2022-11-18T02:57:23.789Z,35.80
2022-11-18T02:58:56.815Z,34.63
2022-11-18T03:00:29.966Z,37.70
2022-11-18T03:02:05.323Z,32.53
2022-11-18T03:03:38.731Z,33.50
2022-11-18T03:05:19.269Z,33.33
2022-11-18T03:07:00.721Z,34.90
2022-11-18T03:08:39.592Z,34.83
2022-11-18T03:10:13.118Z,36.07
2022-11-18T03:11:54.628Z,35.03
2022-11-18T03:13:33.584Z,32.83
2022-11-18T03:15:16.367Z,34.10
2022-11-18T03:16:58.289Z,35.37
2022-11-18T03:18:38.255Z,32.57
2022-11-18T03:20:18.960Z,33.63
2022-11-18T03:22:00.963Z,33.50
2022-11-18T03:23:39.539Z,34.43
2022-11-18T03:25:17.881Z,30.13
2022-11-18T03:26:57.158Z,31.83
2022-11-18T03:28:37.357Z,31.37
2022-11-18T03:30:15.278Z,31.20
2022-11-18T03:31:52.184Z,30.63
2022-11-18T03:33:32.456Z,30.07
2022-11-18T03:35:11.556Z,31.30
2022-11-18T03:36:51.793Z,31.77
2022-11-18T03:38:30.533Z,34.67
2022-11-18T03:40:11.697Z,34.00
2022-11-18T03:41:49.641Z,31.63
2022-11-18T03:43:26.516Z,31.70
2022-11-18T03:45:03.561Z,28.50
2022-11-18T03:46:41.188Z,30.77
2022-11-18T03:48:16.529Z,32.30
2022-11-18T03:49:54.775Z,28.87
2022-11-18T03:51:32.676Z,33.13
2022-11-18T03:53:08.597Z,28.60
2022-11-18T03:54:42.838Z,29.43
2022-11-18T03:56:19.154Z,28.80
2022-11-18T03:57:57.432Z,29.77
2022-11-18T03:59:36.585Z,30.10
2022-11-18T04:01:13.571Z,33.10
2022-11-18T04:02:49.986Z,30.83
2022-11-18T04:04:23.469Z,30.10
2022-11-18T04:06:04.280Z,29.73
2022-11-18T04:07:43.816Z,29.37
2022-11-18T04:09:24.358Z,30.47
2022-11-18T04:11:03.239Z,34.23
2022-11-18T04:12:40.959Z,30.63
2022-11-18T04:14:16.792Z,31.53
2022-11-18T04:15:49.926Z,31.43
2022-11-18T04:17:25.183Z,31.00
2022-11-18T04:19:01.451Z,32.50
2022-11-18T04:20:38.011Z,30.00
2022-11-18T04:22:12.696Z,34.10
2022-11-18T04:23:47.144Z,31.00
2022-11-18T04:25:20.201Z,31.80
2022-11-18T04:26:53.244Z,31.00
2022-11-18T04:28:26.342Z,32.77
2022-11-18T04:29:59.380Z,30.23
2022-11-18T04:31:31.860Z,31.90
2022-11-18T04:33:05.229Z,34.77
2022-11-18T04:34:37.337Z,32.57
2022-11-18T04:36:10.860Z,29.30
2022-11-18T04:37:44.381Z,32.27
2022-11-18T04:39:19.291Z,29.63
2022-11-18T04:40:51.588Z,32.33
2022-11-18T04:42:24.632Z,31.73
2022-11-18T04:43:57.872Z,32.83
2022-11-18T04:45:30.879Z,32.37
2022-11-18T04:47:06.429Z,30.67
2022-11-18T04:48:39.641Z,30.93
2022-11-18T04:50:12.722Z,35.47
2022-11-18T04:51:45.566Z,31.40
2022-11-18T04:53:18.805Z,30.40
2022-11-18T04:54:53.696Z,34.20
2022-11-18T04:56:25.886Z,31.43
2022-11-18T04:57:58.933Z,32.60
2022-11-18T04:59:31.612Z,30.17
2022-11-18T05:01:04.708Z,33.53
2022-11-18T05:02:37.811Z,30.87
2022-11-18T05:04:14.535Z,31.10
2022-11-18T05:05:47.604Z,33.77
2022-11-18T05:07:20.689Z,32.87
2022-11-18T05:08:53.059Z,33.80
2022-11-18T05:10:27.519Z,34.57
2022-11-18T05:12:18.874Z,33.33
2022-11-18T05:13:51.198Z,34.60
2022-11-18T05:15:24.884Z,34.23
2022-11-18T05:16:58.455Z,32.17
2022-11-18T05:18:31.513Z,33.27
2022-11-18T05:20:05.249Z,33.10
2022-11-18T05:21:37.615Z,30.87
2022-11-18T05:23:10.710Z,29.30
2022-11-18T05:24:42.776Z,33.43
2022-11-18T05:26:17.404Z,32.40
2022-11-18T05:27:50.444Z,34.13
2022-11-18T05:29:24.388Z,32.90
2022-11-18T05:30:57.448Z,33.37
2022-11-18T05:32:30.522Z,34.33
2022-11-18T05:34:03.771Z,35.73
2022-11-18T05:35:38.440Z,34.73
2022-11-18T05:37:12.134Z,34.70
2022-11-18T05:38:45.698Z,34.23
2022-11-18T05:40:19.315Z,34.00
2022-11-18T05:42:11.155Z,34.60
2022-11-18T05:43:43.194Z,34.63
2022-11-18T05:45:19.315Z,37.70
2022-11-18T05:46:52.374Z,36.67
2022-11-18T05:48:25.245Z,36.47
2022-11-18T05:49:58.272Z,34.27
2022-11-18T05:51:31.326Z,33.67
2022-11-18T05:53:05.474Z,38.90
2022-11-18T05:54:40.635Z,33.87
2022-11-18T05:56:19.066Z,36.90
2022-11-18T05:57:53.539Z,36.83
2022-11-18T05:59:26.563Z,35.43
2022-11-18T06:01:04.217Z,35.57
2022-11-18T06:02:37.442Z,40.40
2022-11-18T06:04:15.456Z,35.47
2022-11-18T06:05:49.171Z,38.67
2022-11-18T06:07:27.693Z,37.33
2022-11-18T06:09:03.875Z,38.03
2022-11-18T06:10:39.534Z,38.33
2022-11-18T06:12:17.824Z,37.17
2022-11-18T06:13:55.244Z,39.13
2022-11-18T06:15:32.357Z,35.20
2022-11-18T06:17:08.195Z,36.87
2022-11-18T06:18:42.359Z,36.93
2022-11-18T06:20:17.495Z,34.80
2022-11-18T06:21:50.943Z,34.50
2022-11-18T06:23:23.602Z,39.20
2022-11-18T06:24:56.786Z,35.30
2022-11-18T06:26:30.127Z,36.27
2022-11-18T06:28:03.781Z,33.03
2022-11-18T06:29:38.224Z,33.63
2022-11-18T06:31:11.315Z,32.83
2022-11-18T06:32:44.382Z,31.87
2022-11-18T06:34:17.413Z,33.20
2022-11-18T06:35:50.528Z,33.13
2022-11-18T06:37:23.615Z,32.13
2022-11-18T06:38:56.912Z,31.83
2022-11-18T06:40:34.453Z,32.27
2022-11-18T06:42:08.035Z,35.23
2022-11-18T06:43:41.507Z,33.37
2022-11-18T06:45:15.310Z,33.77
2022-11-18T06:46:57.193Z,33.27
2022-11-18T06:48:29.448Z,34.23
2022-11-18T06:50:02.541Z,36.50
2022-11-18T06:51:35.628Z,38.83
2022-11-18T06:53:07.674Z,35.57
2022-11-18T06:54:40.765Z,36.10
2022-11-18T06:56:16.165Z,34.37
2022-11-18T06:57:49.259Z,36.30
2022-11-18T06:59:24.467Z,34.47
2022-11-18T07:00:59.286Z,32.67
2022-11-18T07:02:32.391Z,35.57
2022-11-18T07:04:05.907Z,34.83
2022-11-18T07:05:38.983Z,35.30
2022-11-18T07:07:12.322Z,34.80
2022-11-18T07:08:45.657Z,36.83
2022-11-18T07:10:18.883Z,33.57
2022-11-18T07:11:51.953Z,31.47
2022-11-18T07:13:25.065Z,33.57
2022-11-18T07:14:58.088Z,30.43
2022-11-18T07:16:32.581Z,31.83
2022-11-18T07:18:05.789Z,32.40
2022-11-18T07:19:39.807Z,33.50
2022-11-18T07:21:14.203Z,32.23
2022-11-18T07:22:47.284Z,32.77
2022-11-18T07:24:20.326Z,31.87
2022-11-18T07:25:56.015Z,29.80
2022-11-18T07:27:29.088Z,26.33
2022-11-18T07:29:02.456Z,25.43
2022-11-18T07:30:35.508Z,25.27
2022-11-18T07:32:09.966Z,23.53
2022-11-18T07:33:45.092Z,20.23
2022-11-18T07:35:18.899Z,21.60
2022-11-18T07:36:52.057Z,21.70
2022-11-18T07:38:25.151Z,22.87
2022-11-18T07:39:59.738Z,21.73
2022-11-18T07:41:32.957Z,21.00
2022-11-18T07:43:07.271Z,20.97
2022-11-18T07:44:40.707Z,18.43
2022-11-18T07:46:15.810Z,18.73
2022-11-18T07:47:50.331Z,19.80
2022-11-18T07:49:23.374Z,20.60
2022-11-18T07:50:56.456Z,19.07
2022-11-18T07:52:29.490Z,19.03
2022-11-18T07:54:02.727Z,19.03
2022-11-18T07:55:35.779Z,20.60
2022-11-18T07:57:09.921Z,19.07
2022-11-18T07:58:44.170Z,19.47
2022-11-18T08:00:18.153Z,19.83
2022-11-18T08:01:51.293Z,22.23
2022-11-18T08:03:27.167Z,22.73
2022-11-18T08:05:00.300Z,20.80
2022-11-18T08:06:34.928Z,19.20
2022-11-18T08:08:07.983Z,20.80
2022-11-18T08:09:41.106Z,19.00
2022-11-18T08:11:22.659Z,21.00
2022-11-18T08:12:57.334Z,19.77
2022-11-18T08:14:30.388Z,21.63
2022-11-18T08:16:04.418Z,21.27
2022-11-18T08:17:37.512Z,24.27
2022-11-18T08:19:11.943Z,20.57
2022-11-18T08:20:45.768Z,23.37
2022-11-18T08:22:20.726Z,22.73
2022-11-18T08:23:55.521Z,22.73
2022-11-18T08:25:29.343Z,22.37
2022-11-18T08:27:02.430Z,23.20
2022-11-18T08:28:35.669Z,24.10
2022-11-18T08:30:10.269Z,24.37
2022-11-18T08:31:43.304Z,23.03
2022-11-18T08:33:16.364Z,23.07
2022-11-18T08:34:51.511Z,21.80
2022-11-18T08:36:27.557Z,19.67
2022-11-18T08:38:01.021Z,19.67
2022-11-18T08:39:34.123Z,20.83
2022-11-18T08:41:07.483Z,19.53
2022-11-18T08:42:41.111Z,19.93
2022-11-18T08:44:16.187Z,18.53
2022-11-18T08:45:49.258Z,20.77
2022-11-18T08:47:22.333Z,18.73
2022-11-18T08:48:55.527Z,17.17
2022-11-18T08:50:29.970Z,17.63
2022-11-18T08:52:03.042Z,18.07
2022-11-18T08:53:36.064Z,18.43
2022-11-18T08:55:09.725Z,19.43
2022-11-18T08:56:42.845Z,20.90
2022-11-18T08:58:16.042Z,19.70
2022-11-18T08:59:49.068Z,19.20
2022-11-18T09:01:22.502Z,21.07
2022-11-18T09:02:55.703Z,23.33
2022-11-18T09:04:28.867Z,22.60
2022-11-18T09:06:09.080Z,21.47
2022-11-18T09:07:42.260Z,23.47
2022-11-18T09:09:15.368Z,19.80
2022-11-18T09:10:48.598Z,21.53
2022-11-18T09:12:21.805Z,21.13
2022-11-18T09:15:49.274Z,23.87
2022-11-18T09:17:22.431Z,21.20
2022-11-18T09:18:56.811Z,24.27
2022-11-18T09:20:29.904Z,27.07
2022-11-18T09:22:04.950Z,25.50
2022-11-18T09:23:39.229Z,25.97
2022-11-18T09:25:12.321Z,26.67
2022-11-18T09:26:45.697Z,26.60
2022-11-18T09:28:18.780Z,25.60
2022-11-18T09:29:51.853Z,28.53
2022-11-18T09:31:24.945Z,28.87
2022-11-18T09:32:58.386Z,28.17
2022-11-18T09:34:31.464Z,29.93
2022-11-18T09:36:05.011Z,30.23
2022-11-18T09:37:39.460Z,30.33
2022-11-18T09:39:12.500Z,34.13
2022-11-18T09:40:54.831Z,32.13
2022-11-18T09:42:39.865Z,35.97
2022-11-18T09:44:25.533Z,33.63
2022-11-18T09:46:03.891Z,33.90
2022-11-18T09:47:37.495Z,32.77
2022-11-18T09:49:15.029Z,36.20
2022-11-18T09:50:50.409Z,31.33
2022-11-18T09:52:32.773Z,37.23
2022-11-18T09:54:14.034Z,30.40
2022-11-18T09:55:48.168Z,29.50
2022-11-18T09:57:24.049Z,33.00
2022-11-18T09:58:57.953Z,30.00
2022-11-18T10:00:31.739Z,31.90
2022-11-18T10:02:26.572Z,29.83
2022-11-18T10:03:59.725Z,30.93
2022-11-18T10:05:40.369Z,27.83
2022-11-18T10:07:21.880Z,29.90
2022-11-18T10:09:12.132Z,28.83
2022-11-18T10:10:55.677Z,31.43
2022-11-18T10:12:37.327Z,30.92
2022-11-18T10:14:23.202Z,37.70
2022-11-18T10:16:05.843Z,36.67
2022-11-18T10:17:51.366Z,37.47
2022-11-18T10:19:32.479Z,38.77
2022-11-18T10:21:17.982Z,36.83
2022-11-18T10:22:55.310Z,37.20
2022-11-18T10:24:34.555Z,35.10
2022-11-18T10:26:09.019Z,40.47
2022-11-18T10:27:44.593Z,42.67
2022-11-18T10:29:17.882Z,38.83
2022-11-18T10:30:51.434Z,37.00
2022-11-18T10:32:24.962Z,35.43
2022-11-18T10:34:01.958Z,34.83
2022-11-18T10:35:36.976Z,33.73
2022-11-18T10:37:34.491Z,33.67
2022-11-18T10:39:17.228Z,32.00
2022-11-18T10:41:00.639Z,34.10
2022-11-18T10:42:43.139Z,32.40
2022-11-18T10:44:37.645Z,31.00
2022-11-18T10:46:18.414Z,30.50
2022-11-18T10:48:02.623Z,31.70
2022-11-18T10:49:39.916Z,25.65
2022-11-18T10:51:23.410Z,30.40
2022-11-18T10:52:56.698Z,24.95
2022-11-18T10:54:29.810Z,22.45
2022-11-18T10:56:05.028Z,24.52
2022-11-18T10:57:43.398Z,26.00
2022-11-18T10:59:27.529Z,24.40
2022-11-18T11:01:08.169Z,26.77
2022-11-18T11:02:42.534Z,25.00
2022-11-18T11:04:23.783Z,24.50
2022-11-18T11:06:30.121Z,24.05
2022-11-18T11:08:34.512Z,24.15
2022-11-18T11:10:03.757Z,23.98
2022-11-18T11:11:40.216Z,26.33
2022-11-18T11:13:17.908Z,26.00
2022-11-18T11:14:53.327Z,29.95
2022-11-18T11:16:28.719Z,27.95
2022-11-18T11:18:23.273Z,26.35
2022-11-18T11:20:04.877Z,27.33
2022-11-18T11:21:37.931Z,27.17
2022-11-18T11:23:11.668Z,29.70
2022-11-18T11:24:44.952Z,29.47
2022-11-18T11:28:30.066Z,28.20
2022-11-18T11:30:21.695Z,27.45
2022-11-18T11:32:05.648Z,31.98
2022-11-18T11:33:44.951Z,31.50
2022-11-18T11:35:23.418Z,31.30
2022-11-18T11:37:04.702Z,32.47
2022-11-18T11:38:53.268Z,31.60
2022-11-18T11:40:34.788Z,33.28
2022-11-18T11:42:19.768Z,33.85
2022-11-18T11:44:17.312Z,34.97
2022-11-18T11:46:08.701Z,35.63
2022-11-18T11:47:56.913Z,34.22
2022-11-18T11:49:36.878Z,35.88
2022-11-18T11:51:17.239Z,33.30
2022-11-18T11:53:07.230Z,32.78
2022-11-18T11:54:52.839Z,34.15
2022-11-18T11:56:34.122Z,33.30
2022-11-18T11:58:20.545Z,32.70
2022-11-18T12:00:02.888Z,30.60
2022-11-18T12:01:58.192Z,33.88
2022-11-18T12:03:51.416Z,33.65
2022-11-18T12:05:34.148Z,38.25
2022-11-18T12:07:13.995Z,37.67
2022-11-18T12:08:57.512Z,38.35
2022-11-18T12:10:39.028Z,38.72
2022-11-18T12:12:36.535Z,39.78
2022-11-18T12:14:16.960Z,40.08
2022-11-18T12:16:02.169Z,41.75
2022-11-18T12:17:46.029Z,37.50
2022-11-18T12:19:21.495Z,40.58
2022-11-18T12:20:55.504Z,42.60
2022-11-18T12:23:02.044Z,44.42
2022-11-18T12:24:39.569Z,41.90
2022-11-18T12:26:13.066Z,41.63
2022-11-18T12:28:00.819Z,36.38
2022-11-18T12:29:55.172Z,42.13
2022-11-18T12:31:36.892Z,36.03
2022-11-18T12:33:17.920Z,39.20
2022-11-18T12:34:59.712Z,40.20
2022-11-18T12:36:34.946Z,36.73
2022-11-18T12:38:29.871Z,38.90
2022-11-18T12:40:03.030Z,35.85
2022-11-18T12:42:11.735Z,35.13
2022-11-18T12:44:07.536Z,36.00
2022-11-18T12:45:59.187Z,40.28
2022-11-18T12:47:58.471Z,41.17
2022-11-18T12:50:11.647Z,35.40
2022-11-18T12:51:44.885Z,39.23
2022-11-18T12:53:36.315Z,42.37
2022-11-18T12:55:16.783Z,40.97
2022-11-18T12:56:51.382Z,42.57
2022-11-18T12:58:26.019Z,42.15
2022-11-18T12:59:59.257Z,46.40
2022-11-18T13:01:35.360Z,43.23
2022-11-18T13:03:10.038Z,44.57
2022-11-18T13:04:45.984Z,49.22
2022-11-18T13:06:25.531Z,47.10
2022-11-18T13:08:14.934Z,45.90
2022-11-18T13:09:48.869Z,47.97
2022-11-18T13:11:39.946Z,48.17
2022-11-18T13:13:23.271Z,47.08
2022-11-18T13:15:14.170Z,50.40
2022-11-18T13:17:04.793Z,53.03
2022-11-18T13:18:50.393Z,55.42
2022-11-18T13:20:24.959Z,54.63
2022-11-18T13:22:17.091Z,52.70
2022-11-18T13:23:57.670Z,55.05
2022-11-18T13:25:33.862Z,56.95
2022-11-18T13:27:07.192Z,54.72
2022-11-18T13:28:46.285Z,55.80
2022-11-18T13:30:19.995Z,53.60
2022-11-18T13:31:56.128Z,51.88
2022-11-18T13:33:29.543Z,48.25
2022-11-18T13:35:09.586Z,48.03
2022-11-18T13:36:45.351Z,47.35
2022-11-18T13:38:27.454Z,46.40
2022-11-18T13:40:01.798Z,45.75
2022-11-18T13:41:36.405Z,44.03
2022-11-18T13:43:12.465Z,44.60
2022-11-18T13:44:47.412Z,43.75
2022-11-18T13:46:21.755Z,45.30
2022-11-18T13:47:57.495Z,46.20
2022-11-18T13:49:38.109Z,48.58
2022-11-18T13:51:13.987Z,50.08
2022-11-18T13:52:49.361Z,47.70
2022-11-18T13:54:24.195Z,52.22
2022-11-18T13:56:01.583Z,52.85
2022-11-18T13:57:36.502Z,51.60
2022-11-18T13:59:18.142Z,48.33
2022-11-18T14:00:57.016Z,45.80
2022-11-18T14:02:30.484Z,49.17
2022-11-18T14:04:04.626Z,47.30
2022-11-18T14:05:38.001Z,52.88
2022-11-18T14:07:24.966Z,52.40
2022-11-18T14:09:09.469Z,49.55
2022-11-18T14:10:44.354Z,51.22
2022-11-18T14:12:24.451Z,49.25
2022-11-18T14:14:01.269Z,47.03
2022-11-18T14:15:42.211Z,46.92
2022-11-18T14:17:19.135Z,45.97
2022-11-18T14:18:53.300Z,43.28
2022-11-18T14:20:27.548Z,42.35
2022-11-18T14:22:10.015Z,45.40
2022-11-18T14:23:47.593Z,45.25
2022-11-18T14:25:21.877Z,46.40
2022-11-18T14:26:55.289Z,47.33
2022-11-18T14:28:30.127Z,46.80
2022-11-18T14:30:03.716Z,47.17
2022-11-18T14:31:37.121Z,42.97
2022-11-18T14:33:18.041Z,45.30
2022-11-18T14:34:58.917Z,43.40
2022-11-18T14:36:32.423Z,46.80
2022-11-18T14:40:06.792Z,48.35
2022-11-18T14:41:49.380Z,47.03
2022-11-18T14:43:22.791Z,41.55
2022-11-18T14:44:56.175Z,47.45
2022-11-18T14:46:29.869Z,43.65
2022-11-18T14:48:03.370Z,47.08
2022-11-18T14:49:37.783Z,49.03
2022-11-18T14:51:13.693Z,49.55
2022-11-18T14:52:47.082Z,47.40
2022-11-18T14:54:26.471Z,50.95
2022-11-18T14:56:02.103Z,45.90
2022-11-18T14:57:35.455Z,49.38
2022-11-18T14:59:08.852Z,46.78
2022-11-18T15:00:42.355Z,47.47
2022-11-18T15:02:16.733Z,50.25
2022-11-18T15:03:50.063Z,49.88
2022-11-18T15:05:23.470Z,48.75
2022-11-18T15:06:57.003Z,49.45
2022-11-18T15:08:30.745Z,49.05
2022-11-18T15:10:04.154Z,44.63
2022-11-18T15:11:38.897Z,47.38
2022-11-18T15:13:12.651Z,45.67
2022-11-18T15:14:46.108Z,51.35
2022-11-18T15:16:20.204Z,48.08
2022-11-18T15:17:54.151Z,50.08
2022-11-18T15:19:27.667Z,50.05
2022-11-18T15:21:01.075Z,47.88
2022-11-18T15:22:35.057Z,47.40
2022-11-18T15:24:08.519Z,48.17
2022-11-18T15:25:41.963Z,43.55
2022-11-18T15:27:16.774Z,47.80
2022-11-18T15:28:50.686Z,44.22
2022-11-18T15:30:24.136Z,47.80
2022-11-18T15:31:57.483Z,49.03
2022-11-18T15:33:31.011Z,48.50
2022-11-18T15:35:04.488Z,48.63
2022-11-18T15:36:37.884Z,45.85
2022-11-18T15:38:12.451Z,49.45
2022-11-18T15:39:45.820Z,48.30
2022-11-18T15:41:20.996Z,47.95
2022-11-18T15:42:55.774Z,49.00
2022-11-18T15:44:29.114Z,44.25
2022-11-18T15:46:02.506Z,47.33
2022-11-18T15:47:35.928Z,45.70
2022-11-18T15:49:10.065Z,46.28
2022-11-18T15:50:43.474Z,45.08
2022-11-18T15:52:17.049Z,48.13
2022-11-18T15:53:50.520Z,48.15
2022-11-18T15:55:23.865Z,49.33
2022-11-18T15:56:57.272Z,47.17
2022-11-18T15:58:35.871Z,46.60
2022-11-18T16:00:10.174Z,47.50
2022-11-18T16:01:46.610Z,48.58
2022-11-18T16:03:19.976Z,48.05
2022-11-18T16:04:53.523Z,49.15
2022-11-18T16:06:27.318Z,46.92
2022-11-18T16:08:00.656Z,47.75
2022-11-18T16:09:51.952Z,49.55
2022-11-18T16:11:42.976Z,49.67
2022-11-18T16:13:16.369Z,51.60
2022-11-18T16:15:11.098Z,51.90
2022-11-18T16:16:44.551Z,59.15
2022-11-18T16:18:19.615Z,58.80
2022-11-18T16:19:54.230Z,105.13
2022-11-18T16:21:27.954Z,54.83
2022-11-18T16:23:01.334Z,53.50
2022-11-18T16:24:34.795Z,52.80
2022-11-18T16:26:08.334Z,55.05
2022-11-18T16:27:41.704Z,53.83
2022-11-18T16:29:17.256Z,54.55
2022-11-18T16:31:10.514Z,54.92
2022-11-18T16:32:44.102Z,51.53
2022-11-18T16:34:18.508Z,52.83
2022-11-18T16:35:52.256Z,52.78
2022-11-18T16:37:25.729Z,52.58
2022-11-18T16:38:59.159Z,52.50
2022-11-18T16:40:32.514Z,45.67
2022-11-18T16:42:08.646Z,48.38
2022-11-18T16:43:42.514Z,47.97
2022-11-18T16:45:15.953Z,55.63
2022-11-18T16:46:51.489Z,45.83
2022-11-18T16:48:24.895Z,46.75
2022-11-18T16:49:58.328Z,50.13
2022-11-18T16:51:32.184Z,49.80
2022-11-18T16:53:05.538Z,48.58
2022-11-18T16:54:44.772Z,47.47
2022-11-18T16:56:18.489Z,47.55
2022-11-18T16:57:51.823Z,46.65
2022-11-18T16:59:26.174Z,47.97
2022-11-18T17:01:18.723Z,49.63
2022-11-18T17:02:54.268Z,46.67
2022-11-18T17:04:28.157Z,50.92
2022-11-18T17:06:01.902Z,44.22
2022-11-18T17:07:38.608Z,47.33
2022-11-18T17:09:14.424Z,41.70
2022-11-18T17:10:47.792Z,40.45
2022-11-18T17:12:21.151Z,42.63
2022-11-18T17:13:57.952Z,42.83
2022-11-18T17:15:31.715Z,39.92
2022-11-18T17:17:05.359Z,38.67
2022-11-18T17:18:40.203Z,41.40
2022-11-18T17:20:13.597Z,39.28
2022-11-18T17:21:47.507Z,38.05
2022-11-18T17:23:20.916Z,39.90
2022-11-18T17:24:53.971Z,36.78
2022-11-18T17:26:28.884Z,37.90
2022-11-18T17:28:01.910Z,38.15
2022-11-18T17:29:35.053Z,37.47
2022-11-18T17:31:09.006Z,35.70
2022-11-18T17:32:42.828Z,32.05
2022-11-18T17:34:17.740Z,34.22
2022-11-18T17:36:00.588Z,39.33
2022-11-18T17:37:33.807Z,34.63
2022-11-18T17:39:07.310Z,35.90
2022-11-18T17:40:40.423Z,34.30
2022-11-18T17:42:15.204Z,35.92
2022-11-18T17:43:48.278Z,35.53
2022-11-18T17:45:21.339Z,33.40
2022-11-18T17:46:54.464Z,34.55
2022-11-18T17:48:28.917Z,36.63
2022-11-18T17:50:03.377Z,39.35
2022-11-18T17:51:36.419Z,33.72
2022-11-18T17:53:09.497Z,36.20
2022-11-18T17:54:42.593Z,33.25
2022-11-18T17:56:15.675Z,32.63
2022-11-18T17:57:48.711Z,32.15
2022-11-18T17:59:22.951Z,31.90
2022-11-18T18:00:56.055Z,27.27
2022-11-18T18:02:29.144Z,27.02
2022-11-18T18:04:02.168Z,29.15
2022-11-18T18:05:36.620Z,29.70
2022-11-18T18:07:09.943Z,26.77
2022-11-18T18:08:43.467Z,25.70
2022-11-18T18:10:16.927Z,28.63
2022-11-18T18:11:50.520Z,28.08
2022-11-18T18:13:40.901Z,32.95
2022-11-18T18:15:13.174Z,32.83
2022-11-18T18:16:47.837Z,28.35
2022-11-18T18:18:20.914Z,25.13
2022-11-18T18:19:53.932Z,25.27
2022-11-18T18:21:28.828Z,24.35
2022-11-18T18:23:02.014Z,23.63
2022-11-18T18:24:35.128Z,24.65
2022-11-18T18:26:09.646Z,24.33
2022-11-18T18:27:42.779Z,22.60
2022-11-18T18:29:15.988Z,22.45
2022-11-18T18:30:57.767Z,23.25
2022-11-18T18:32:30.818Z,22.40
2022-11-18T18:34:04.434Z,19.63
2022-11-18T18:35:41.233Z,21.25
2022-11-18T18:37:15.742Z,19.88
2022-11-18T18:38:49.073Z,23.27
2022-11-18T18:40:22.434Z,20.63
2022-11-18T18:41:55.483Z,21.35
2022-11-18T18:43:28.570Z,21.58
2022-11-18T18:45:18.987Z,23.15
2022-11-18T18:46:52.272Z,19.17
2022-11-18T18:48:25.336Z,23.42
2022-11-18T18:49:58.431Z,19.27
2022-11-18T18:51:35.450Z,18.17
2022-11-18T18:53:09.914Z,22.00
2022-11-18T18:54:42.968Z,20.08
2022-11-18T18:56:16.086Z,21.10
2022-11-18T18:57:49.130Z,19.25
2022-11-18T18:59:22.591Z,19.25
2022-11-18T19:00:58.420Z,19.48
2022-11-18T19:02:31.625Z,18.70
2022-11-18T19:04:07.218Z,18.42
2022-11-18T19:06:16.816Z,20.08
2022-11-18T19:07:33.647Z,19.13
2022-11-18T19:09:11.576Z,20.38
2022-11-18T19:10:46.536Z,19.05
2022-11-18T19:12:37.249Z,20.08
2022-11-18T19:14:12.359Z,20.05
2022-11-18T19:15:47.827Z,19.30
2022-11-18T19:17:21.034Z,15.93
2022-11-18T19:18:54.195Z,15.77
2022-11-18T19:20:36.899Z,14.25
2022-11-18T19:22:11.873Z,14.45
2022-11-18T19:23:44.915Z,14.80
2022-11-18T19:25:19.492Z,13.88
2022-11-18T19:26:52.518Z,14.13
2022-11-18T19:28:25.571Z,10.95
2022-11-18T19:29:59.140Z,11.93
2022-11-18T19:31:32.608Z,13.70
2022-11-18T19:33:05.906Z,13.07
2022-11-18T19:34:39.028Z,12.38
2022-11-18T19:36:12.185Z,11.77
2022-11-18T19:37:46.805Z,11.63
2022-11-18T19:39:20.286Z,12.10
2022-11-18T19:41:00.970Z,11.80
2022-11-18T19:42:36.146Z,13.50
2022-11-18T19:44:09.412Z,15.43
2022-11-18T19:45:51.028Z,12.68
2022-11-18T19:47:24.717Z,13.82
2022-11-18T19:48:57.891Z,11.10
2022-11-18T19:50:30.953Z,11.05
2022-11-18T19:52:04.051Z,12.35
2022-11-18T19:53:39.195Z,10.50
2022-11-18T19:55:12.270Z,11.25
2022-11-18T19:56:46.724Z,11.93
2022-11-18T19:58:19.829Z,12.45
2022-11-18T19:59:52.965Z,12.40
2022-11-18T20:01:28.523Z,10.90
2022-11-18T20:03:01.606Z,10.20
2022-11-18T20:04:34.676Z,11.30
2022-11-18T20:06:07.284Z,11.55
2022-11-18T20:07:40.453Z,13.45
2022-11-18T20:09:14.019Z,11.45
2022-11-18T20:10:47.139Z,12.43
2022-11-18T20:12:21.568Z,12.50
2022-11-18T20:13:54.627Z,12.07
2022-11-18T20:15:27.667Z,11.07
2022-11-18T20:17:00.708Z,12.52
2022-11-18T20:18:34.941Z,11.68
2022-11-18T20:20:09.521Z,12.88
2022-11-18T20:21:44.196Z,11.90
2022-11-18T20:23:17.334Z,11.13
2022-11-18T20:24:50.374Z,12.13
2022-11-18T20:26:25.449Z,12.38
2022-11-18T20:27:59.870Z,11.40
2022-11-18T20:29:32.956Z,10.82
2022-11-18T20:31:07.362Z,11.60
2022-11-18T20:32:40.464Z,11.70
2022-11-18T20:34:14.898Z,11.75
2022-11-18T20:35:48.139Z,11.82
2022-11-18T20:37:25.508Z,12.45
2022-11-18T20:39:04.110Z,12.38
2022-11-18T20:40:37.471Z,13.20
2022-11-18T20:42:28.353Z,13.20
2022-11-18T20:44:03.099Z,12.60
2022-11-18T20:45:36.485Z,12.60
2022-11-18T20:47:09.853Z,11.48
2022-11-18T20:48:43.421Z,13.73
2022-11-18T20:50:16.797Z,13.90